Flight Track Log - Related Links

Times and Time Zones

All times are in EDT time to prevent confusion due to time zone crossing. See the EJA140 flight status page for this flight to view local times or setup timezone preferences in your user account.

Time Position Orientation Groundspeed Altitude Reporting Facility
EDT Latitude Longitude Course Direction KTS MPH feet Rate Location/Type
Wed 01:57:26 PM 34.1431 -118.4303 45° Northeast 209 241 3,600  Level Los Angeles Center
Wed 01:58:26 PM 34.1772 -118.3886 348° North 127 146 6,900 2,350 Climbing Los Angeles Center
Wed 01:59:26 PM 34.2394 -118.4053 343° North 158 182 8,300 1,950 Climbing Los Angeles Center
Wed 02:00:26 PM 34.3267 -118.4378 North 244 281 10,800 1,900 Climbing Los Angeles Center
Wed 02:01:26 PM 34.4039 -118.4300 52° Northeast 317 365 12,100 1,550 Climbing Los Angeles Center
Wed 02:02:26 PM 34.4619 -118.3383 52° Northeast 310 357 13,900 1,900 Climbing Los Angeles Center
Wed 02:03:26 PM 34.5264 -118.2367 54° Northeast 337 388 15,900 1,850 Climbing Los Angeles Center
Wed 02:04:26 PM 34.5758 -118.1547 55° Northeast 345 397 17,600 1,500 Climbing Los Angeles Center
Wed 02:05:26 PM 34.6294 -118.0625 80° East 338 389 18,900 1,450 Climbing Los Angeles Center
Wed 02:06:26 PM 34.6458 -117.9494 84° East 323 372 20,500 1,400 Climbing Los Angeles Center
Wed 02:07:26 PM 34.6558 -117.8308 78° East 333 383 21,700 1,250 Climbing Los Angeles Center
Wed 02:08:26 PM 34.6808 -117.6925 73° East 365 420 23,000 1,200 Climbing Los Angeles Center
Wed 02:09:26 PM 34.7114 -117.5692 73° East 370 426 24,100 1,100 Climbing Los Angeles Center
Wed 02:10:26 PM 34.7442 -117.4383 73° East 380 437 25,200 1,200 Climbing Los Angeles Center
Wed 02:11:26 PM 34.7769 -117.3100 73° East 385 443 26,500 1,200 Climbing Los Angeles Center
Wed 02:12:26 PM 34.8094 -117.1839 72° East 390 449 27,600 1,000 Climbing Los Angeles Center
Wed 02:13:26 PM 34.8439 -117.0528 54° Northeast 395 455 28,500 950 Climbing Los Angeles Center
Wed 02:14:26 PM 34.9114 -116.9394 51° Northeast 400 460 29,500 1,000 Climbing Los Angeles Center
Wed 02:15:26 PM 34.9872 -116.8261 50° Northeast 413 475 30,500 1,050 Climbing Los Angeles Center
Wed 02:16:26 PM 35.0608 -116.7175 51° Northeast 413 475 31,600 1,150 Climbing Los Angeles Center
Wed 02:17:26 PM 35.1344 -116.6064 50° Northeast 418 481 32,800 1,200 Climbing Los Angeles Center
Wed 02:18:26 PM 35.2078 -116.4975 52° Northeast 418 481 34,000 1,000 Climbing Los Angeles Center
Wed 02:19:26 PM 35.2644 -116.4086 51° Northeast 413 475 34,800 800 Climbing Los Angeles Center
Wed 02:20:26 PM 35.3481 -116.2817 50° Northeast 413 475 35,600 700 Climbing Los Angeles Center
Wed 02:21:26 PM 35.4253 -116.1672 53° Northeast 413 475 36,200 600 Climbing Los Angeles Center
Wed 02:22:26 PM 35.4942 -116.0550 50° Northeast 413 475 36,800 600 Climbing Los Angeles Center
Wed 02:23:26 PM 35.5692 -115.9450 51° Northeast 418 481 37,400 550 Climbing Los Angeles Center
Wed 02:24:26 PM 35.6419 -115.8350 52° Northeast 418 481 37,900 500 Climbing Los Angeles Center
Wed 02:25:26 PM 35.7147 -115.7222 49° Northeast 418 481 38,400 450 Climbing Los Angeles Center
Wed 02:26:26 PM 35.7894 -115.6144 54° Northeast 418 481 38,800 300 Climbing Los Angeles Center
Wed 02:27:26 PM 35.8600 -115.4961 51° Northeast 418 481 39,000 100 Climbing Los Angeles Center
Wed 02:28:26 PM 35.9303 -115.3903 52° Northeast 426 490 39,000  Level Los Angeles Center
Wed 02:29:26 PM 36.0047 -115.2742 55° Northeast 431 496 39,000  Level Los Angeles Center
Wed 02:30:26 PM 36.0767 -115.1475 67° East 436 502 39,000  Level Los Angeles Center
Wed 02:31:26 PM 36.1256 -115.0056 69° East 436 502 39,000  Level Los Angeles Center
Wed 02:32:26 PM 36.1700 -114.8608 69° East 441 507 39,000  Level Los Angeles Center
Wed 02:33:26 PM 36.2144 -114.7186 69° East 441 507 39,000  Level Los Angeles Center
Wed 02:34:26 PM 36.2586 -114.5736 70° East 441 507 39,000  Level Los Angeles Center
Wed 02:35:26 PM 36.3025 -114.4258 69° East 441 507 39,000  Level Los Angeles Center
Wed 02:36:26 PM 36.3461 -114.2831 70° East 441 507 39,000  Level Los Angeles Center
Wed 02:37:26 PM 36.3897 -114.1350 69° East 446 513 39,000  Level Los Angeles Center
Wed 02:38:26 PM 36.4353 -113.9867 70° East 451 519 39,000  Level Los Angeles Center
Wed 02:39:26 PM 36.4786 -113.8383 69° East 451 519 39,000  Level Los Angeles Center
Wed 02:40:26 PM 36.5217 -113.6975 69° East 443 510 39,000  Level Los Angeles Center
Wed 02:41:26 PM 36.5686 -113.5464 70° East 443 510 39,000  Level Los Angeles Center
Wed 02:42:26 PM 36.6114 -113.3975 70° East 448 516 39,000  Level Los Angeles Center
Wed 02:43:26 PM 36.6539 -113.2486 71° East 448 516 39,000  Level Los Angeles Center
Wed 02:44:26 PM 36.6961 -113.0992 70° East 448 516 39,000  Level Los Angeles Center
Wed 02:45:26 PM 36.7383 -112.9525 71° East 448 516 39,000  Level Los Angeles Center
Wed 02:46:26 PM 36.7839 -112.7900 70° East 448 516 39,000  Level Los Angeles Center
Wed 02:47:26 PM 36.8278 -112.6403 71° East 448 516 39,000  Level Los Angeles Center
Wed 02:48:26 PM 36.8672 -112.4933 70° East 448 516 39,000  Level Los Angeles Center
Wed 02:49:45 PM 36.9181 -112.3167 71° East 453 521 39,000  Level Denver Center
Wed 02:50:47 PM 36.9600 -112.1681 71° East 450 518 39,000  Level Denver Center
Wed 02:51:49 PM 37.0017 -112.0169 71° East 452 520 39,000  Level Denver Center
Wed 02:52:51 PM 37.0519 -111.8367 71° East 453 521 39,000  Level Denver Center
Wed 02:53:53 PM 37.0931 -111.6864 64° Northeast 452 520 39,000  Level Denver Center
Wed 02:54:55 PM 37.1494 -111.5433 59° Northeast 456 525 39,000  Level Denver Center
Wed 02:55:57 PM 37.2133 -111.4072 58° Northeast 449 517 39,000  Level Denver Center
Wed 02:56:59 PM 37.2808 -111.2703 58° Northeast 456 525 39,000  Level Denver Center
Wed 02:58:01 PM 37.3478 -111.1328 59° Northeast 456 525 39,000  Level Denver Center
Wed 02:59:03 PM 37.4142 -110.9953 59° Northeast 455 524 39,000  Level Denver Center
Wed 03:00:05 PM 37.4806 -110.8572 59° Northeast 455 524 39,000  Level Denver Center
Wed 03:01:07 PM 37.5478 -110.7181 59° Northeast 458 527 39,000  Level Denver Center
Wed 03:02:09 PM 37.6147 -110.5789 59° Northeast 457 526 39,000  Level Denver Center
Wed 03:03:12 PM 37.6944 -110.4114 59° Northeast 459 528 39,000  Level Denver Center
Wed 03:04:14 PM 37.7572 -110.2794 59° Northeast 458 527 39,000  Level Denver Center
Wed 03:05:16 PM 37.8197 -110.1472 59° Northeast 457 526 39,000  Level Denver Center
Wed 03:06:18 PM 37.8914 -109.9942 59° Northeast 454 522 39,000  Level Denver Center
Wed 03:07:20 PM 37.9544 -109.8622 60° Northeast 455 524 39,000  Level Denver Center
Wed 03:08:22 PM 38.0250 -109.7083 59° Northeast 453 521 39,000  Level Denver Center
Wed 03:09:24 PM 38.0906 -109.5681 60° Northeast 454 522 39,000  Level Denver Center
Wed 03:10:26 PM 38.1517 -109.4356 60° Northeast 455 524 39,000  Level Denver Center
Wed 03:11:28 PM 38.2225 -109.2811 59° Northeast 455 524 39,000 -435 Level Denver Center
Wed 03:12:30 PM 38.2836 -109.1494 60° Northeast 453 521 38,100 -1,210 Descending Denver Center
Wed 03:13:32 PM 38.3536 -108.9942 61° Northeast 452 520 36,500 -1,452 Descending Denver Center
Wed 03:14:34 PM 38.4111 -108.8636 59° Northeast 445 512 35,100 -1,500 Descending Denver Center
Wed 03:15:36 PM 38.4794 -108.7167 60° Northeast 436 502 33,400 -1,512 Descending Denver Center
Wed 03:16:37 PM 38.5389 -108.5858 60° Northeast 442 509 32,000 -1,512 Descending Denver Center
Wed 03:17:39 PM 38.6114 -108.4219 60° Northeast 472 543 30,300 -1,500 Descending Denver Center
Wed 03:18:41 PM 38.6725 -108.2850 60° Northeast 466 536 28,900 -1,500 Descending Denver Center
Wed 03:19:43 PM 38.7442 -108.1244 61° Northeast 467 537 27,200 -1,500 Descending Denver Center
Wed 03:20:45 PM 38.8056 -107.9836 60° Northeast 473 544 25,800 -1,500 Descending Denver Center
Wed 03:21:47 PM 38.8783 -107.8189 60° Northeast 476 548 24,100 -1,355 Descending Denver Center
Wed 03:22:49 PM 38.9392 -107.6844 61° Northeast 462 532 23,000 -1,355 Descending Denver Center
Wed 03:23:51 PM 39.0053 -107.5297 60° Northeast 449 517 21,300 -1,452 Descending Denver Center
Wed 03:24:53 PM 39.0628 -107.3992 77° East 443 510 20,000 -629 Descending Denver Center
Wed 03:25:55 PM 39.0867 -107.2606 146° Southeast 363 418 20,000  Level Denver Center
Wed 03:26:57 PM 39.0283 -107.2092 251° West 305 351 20,000  Level Denver Center
Wed 03:27:59 PM 39.0050 -107.2981 317° Northwest 314 361 20,000 -581 Level Denver Center
Wed 03:29:01 PM 39.0822 -107.3900 334° Northwest 348 400 18,800 -1,403 Descending Denver Center
Wed 03:30:03 PM 39.1597 -107.4394 335° Northwest 331 381 17,100 -1,355 Descending Denver Center
Wed 03:31:05 PM 39.2458 -107.4919 326° Northwest 311 358 16,000 -1,024 Descending Denver Center
Wed 03:32:06 PM 39.3042 -107.5422 327° Northwest 278 320 15,000 -1,463 Descending Denver Center
Wed 03:33:08 PM 39.3767 -107.6025 340° North 274 315 13,000 -2,081 Descending Denver Center
Wed 03:34:10 PM 39.4417 -107.6336 33° Northeast 271 312 10,700 -1,645 Descending Denver Center
Wed 03:35:12 PM 39.4950 -107.5894 334° Northwest 216 249 9,600 -1,645 Descending Denver Center
Wed 03:36:14 PM 39.5303 -107.6114 334° Northwest 182 209 7,300 -2,226 Descending Denver Center

Login

Don't have an account? Register now (free) for customized features, flight alerts, and more!